Time;durP1;ratioP1;P1;durP2;ratioP2;P2;SDS_P1;SDS_P2;PMS_P1;PMS_P2;Temp;Humidity;BMP_temperature;BMP_pressure;BME280_temperature;BME280_humidity;BME280_pressure;Samples;Min_cycle;Max_cycle;Signal;HPM_P1;HPM_P2
2023/04/05 00:01:19;;;;;;;;;;;0.20;95.60;;;;;;5024396;28;20376;-79
2023/04/05 00:03:57;;;;;;;;;;;0.10;95.70;;;;;;5026327;28;19971;-79
2023/04/05 00:06:29;;;;;;;;;;;0.00;96.00;;;;;;5018490;28;19911;-80
2023/04/05 00:09:03;;;;;;;;;;;-0.10;96.10;;;;;;5012801;28;20584;-79
2023/04/05 00:11:34;;;;;;;;;;;-0.10;96.40;;;;;;5020360;28;20807;-79
2023/04/05 00:14:00;;;;;;;;;;;-0.10;96.50;;;;;;5015625;28;20397;-79
2023/04/05 00:16:26;;;;;;;;;;;-0.10;96.80;;;;;;5020359;28;19944;-79
2023/04/05 00:19:00;;;;;;;;;;;-0.10;96.80;;;;;;5025244;28;19909;-79
2023/04/05 00:21:34;;;;;;;;;;;-0.10;96.80;;;;;;5007498;28;20334;-80
2023/04/05 00:24:04;;;;;;;;;;;-0.20;96.90;;;;;;5027099;28;20004;-79
2023/04/05 00:26:32;;;;;;;;;;;-0.20;97.00;;;;;;5014992;28;20320;-79
2023/04/05 00:29:03;;;;;;;;;;;-0.20;97.10;;;;;;5024257;28;19963;-79
2023/04/05 00:31:30;;;;;;;;;;;-0.30;97.40;;;;;;5035012;28;19913;-80
2023/04/05 00:33:55;;;;;;;;;;;-0.30;97.50;;;;;;5003928;28;19909;-78
2023/04/05 00:36:21;;;;;;;;;;;-0.30;97.70;;;;;;5008497;28;19913;-80
2023/04/05 00:38:48;;;;;;;;;;;-0.30;97.60;;;;;;5019686;28;20291;-79
2023/04/05 00:41:15;;;;;;;;;;;-0.20;97.80;;;;;;5016902;28;19909;-80
2023/04/05 00:43:41;;;;;;;;;;;-0.20;97.80;;;;;;5025158;28;19905;-79
2023/04/05 00:46:07;;;;;;;;;;;-0.30;97.90;;;;;;5013219;28;19913;-79
2023/04/05 00:48:32;;;;;;;;;;;-0.30;98.10;;;;;;5018336;28;19929;-79
2023/04/05 00:51:00;;;;;;;;;;;-0.30;98.20;;;;;;5022639;28;19913;-79
2023/04/05 00:53:26;;;;;;;;;;;-0.30;98.30;;;;;;5015868;28;19909;-80
2023/04/05 00:55:52;;;;;;;;;;;-0.40;98.50;;;;;;5028884;28;19909;-79
2023/04/05 00:58:21;;;;;;;;;;;-0.40;98.60;;;;;;5016645;28;20047;-80
2023/04/05 01:00:54;;;;;;;;;;;-0.40;98.80;;;;;;5025897;28;19906;-80
2023/04/05 01:03:24;;;;;;;;;;;-0.40;98.80;;;;;;5022306;28;19911;-79
2023/04/05 01:06:04;;;;;;;;;;;-0.40;99.00;;;;;;5025756;28;19912;-80
2023/04/05 01:08:39;;;;;;;;;;;-0.40;99.10;;;;;;5002185;28;20330;-79
2023/04/05 01:11:09;;;;;;;;;;;-0.40;99.30;;;;;;5020863;28;19917;-80
2023/04/05 01:13:35;;;;;;;;;;;-0.40;99.40;;;;;;5015322;28;19950;-80
2023/04/05 01:16:03;;;;;;;;;;;-0.50;99.10;;;;;;5014429;28;19912;-80
2023/04/05 01:18:31;;;;;;;;;;;-0.40;99.20;;;;;;5031899;28;19913;-79
2023/04/05 01:21:23;;;;;;;;;;;-0.50;99.10;;;;;;5008518;28;20422;-80
2023/04/05 01:24:08;;;;;;;;;;;-0.50;99.30;;;;;;4944444;28;19910;-82
2023/04/05 01:26:45;;;;;;;;;;;-0.50;99.30;;;;;;5025853;28;20055;-80
2023/04/05 01:29:34;;;;;;;;;;;-0.50;99.30;;;;;;5008085;28;19951;-81
2023/04/05 01:32:20;;;;;;;;;;;-0.60;99.70;;;;;;5010404;28;20321;-80
2023/04/05 01:34:49;;;;;;;;;;;-0.60;99.90;;;;;;5027092;28;19905;-80
2023/04/05 01:37:16;;;;;;;;;;;-0.60;99.70;;;;;;5021549;28;19909;-79
2023/04/05 01:39:46;;;;;;;;;;;-0.60;99.80;;;;;;5015843;28;20563;-79
2023/04/05 01:42:14;;;;;;;;;;;-0.70;99.90;;;;;;5021287;28;19909;-79
2023/04/05 01:44:50;;;;;;;;;;;-0.70;99.90;;;;;;5018638;28;19905;-79
2023/04/05 01:47:17;;;;;;;;;;;-0.60;99.90;;;;;;5016216;28;19992;-81
2023/04/05 01:49:43;;;;;;;;;;;-0.70;99.90;;;;;;5017159;28;19913;-79
2023/04/05 01:52:09;;;;;;;;;;;-0.70;99.90;;;;;;5032563;28;19913;-80
2023/04/05 01:54:35;;;;;;;;;;;-0.70;99.90;;;;;;5026164;28;21222;-80
2023/04/05 01:57:00;;;;;;;;;;;-0.70;99.90;;;;;;5006045;28;19912;-79
2023/04/05 01:59:27;;;;;;;;;;;-0.60;99.90;;;;;;5029779;28;19982;-80
2023/04/05 02:01:52;;;;;;;;;;;-0.70;99.90;;;;;;5009258;28;19905;-80
2023/04/05 02:04:25;;;;;;;;;;;-0.70;99.90;;;;;;5025375;28;19919;-79
2023/04/05 02:06:50;;;;;;;;;;;-0.70;99.90;;;;;;5029250;28;19905;-79
2023/04/05 02:09:17;;;;;;;;;;;-0.80;99.90;;;;;;5015136;28;19905;-80
2023/04/05 02:11:42;;;;;;;;;;;-0.70;99.90;;;;;;5018231;28;19939;-79
2023/04/05 02:14:09;;;;;;;;;;;-0.80;99.90;;;;;;5019882;28;20290;-81
2023/04/05 02:16:35;;;;;;;;;;;-0.80;99.90;;;;;;5007517;28;20720;-81
2023/04/05 02:19:01;;;;;;;;;;;-0.80;99.90;;;;;;5014560;28;19909;-81
2023/04/05 02:21:30;;;;;;;;;;;-0.70;99.90;;;;;;5019183;28;19912;-79
2023/04/05 02:23:56;;;;;;;;;;;-0.80;99.90;;;;;;5004089;28;19909;-80
2023/04/05 02:26:22;;;;;;;;;;;-0.60;99.90;;;;;;5027511;28;20273;-79
2023/04/05 02:28:54;;;;;;;;;;;-0.80;99.90;;;;;;5024000;28;19948;-79
2023/04/05 02:31:21;;;;;;;;;;;-0.80;99.90;;;;;;5035350;28;19909;-79
2023/04/05 02:33:47;;;;;;;;;;;-0.80;99.90;;;;;;5018203;28;19915;-79
2023/04/05 02:36:13;;;;;;;;;;;-0.80;99.90;;;;;;5028869;28;19905;-81
2023/04/05 02:38:38;;;;;;;;;;;-0.70;99.90;;;;;;5010484;28;19920;-79
2023/04/05 02:41:10;;;;;;;;;;;-0.70;99.90;;;;;;5016033;28;21011;-79
2023/04/05 02:43:45;;;;;;;;;;;-0.80;99.90;;;;;;5022727;28;20461;-79
2023/04/05 02:46:11;;;;;;;;;;;-0.80;99.90;;;;;;5033286;28;20324;-80
2023/04/05 02:48:37;;;;;;;;;;;-0.80;99.90;;;;;;5027191;28;19928;-81
2023/04/05 02:51:04;;;;;;;;;;;-0.80;99.90;;;;;;5020622;28;19913;-80
2023/04/05 02:53:31;;;;;;;;;;;-0.80;99.90;;;;;;5009603;28;20500;-80
2023/04/05 02:56:04;;;;;;;;;;;-0.80;99.90;;;;;;5022283;28;19908;-81
2023/04/05 02:58:31;;;;;;;;;;;-0.80;99.90;;;;;;5026902;28;19909;-80
2023/04/05 03:01:07;;;;;;;;;;;-0.90;99.90;;;;;;5009857;28;19958;-79
2023/04/05 03:03:35;;;;;;;;;;;-0.90;99.90;;;;;;5010330;28;19958;-79
2023/04/05 03:06:09;;;;;;;;;;;-0.90;99.90;;;;;;5029058;28;19920;-81
2023/04/05 03:08:42;;;;;;;;;;;-0.80;99.90;;;;;;5014147;28;19913;-81
2023/04/05 03:11:10;;;;;;;;;;;-0.80;99.90;;;;;;5015162;28;19909;-80
2023/04/05 03:13:35;;;;;;;;;;;-0.80;99.90;;;;;;5009574;28;19912;-80
2023/04/05 03:16:03;;;;;;;;;;;-0.80;99.90;;;;;;5029831;28;20382;-80
2023/04/05 03:18:32;;;;;;;;;;;-0.90;99.90;;;;;;5008529;28;19913;-81
2023/04/05 03:21:00;;;;;;;;;;;-0.90;99.90;;;;;;5020108;28;20023;-80
2023/04/05 03:23:28;;;;;;;;;;;-0.90;99.90;;;;;;5030602;28;19940;-79
2023/04/05 03:26:03;;;;;;;;;;;-0.90;99.90;;;;;;5023129;28;19953;-79
2023/04/05 03:28:33;;;;;;;;;;;-0.90;99.90;;;;;;5005830;28;20394;-80
2023/04/05 03:30:59;;;;;;;;;;;-1.00;99.90;;;;;;5029632;28;21276;-79
2023/04/05 03:33:25;;;;;;;;;;;-1.00;99.90;;;;;;5020990;28;20543;-79
2023/04/05 03:35:54;;;;;;;;;;;-1.00;99.90;;;;;;5022020;28;19909;-78
2023/04/05 03:38:20;;;;;;;;;;;-1.00;99.90;;;;;;5004864;28;20630;-79
2023/04/05 03:40:47;;;;;;;;;;;-0.90;99.90;;;;;;5008460;28;20269;-79
2023/04/05 03:43:19;;;;;;;;;;;-1.00;99.90;;;;;;5027442;28;20031;-80
2023/04/05 03:45:50;;;;;;;;;;;-0.90;99.90;;;;;;5029084;28;20000;-79
2023/04/05 03:48:19;;;;;;;;;;;-1.00;99.90;;;;;;4999458;28;19932;-79
2023/04/05 03:50:45;;;;;;;;;;;-1.00;99.90;;;;;;5028576;28;19982;-79
2023/04/05 03:53:12;;;;;;;;;;;-1.00;99.90;;;;;;5022136;28;20316;-80
2023/04/05 03:55:39;;;;;;;;;;;-1.00;99.90;;;;;;5018324;28;19905;-80
2023/04/05 03:58:06;;;;;;;;;;;-1.00;99.90;;;;;;5002575;28;19912;-81
2023/04/05 04:00:37;;;;;;;;;;;-1.00;99.90;;;;;;5024083;28;19913;-79
2023/04/05 04:03:03;;;;;;;;;;;-1.00;99.90;;;;;;5002054;28;19937;-80
2023/04/05 04:05:30;;;;;;;;;;;-1.00;99.90;;;;;;5017159;28;19960;-80
2023/04/05 04:07:58;;;;;;;;;;;-1.00;99.90;;;;;;5013427;28;19920;-80
2023/04/05 04:10:28;;;;;;;;;;;-1.10;99.90;;;;;;5008151;28;19916;-80
2023/04/05 04:12:54;;;;;;;;;;;-1.10;99.90;;;;;;5031715;28;19940;-81
2023/04/05 04:15:25;;;;;;;;;;;-1.10;99.90;;;;;;5022368;28;19905;-82
2023/04/05 04:17:52;;;;;;;;;;;-1.00;99.90;;;;;;5013720;28;19944;-80
2023/04/05 04:20:18;;;;;;;;;;;-1.00;99.90;;;;;;5030834;28;19908;-83
2023/04/05 04:22:44;;;;;;;;;;;-1.00;99.90;;;;;;5004302;28;19912;-83
2023/04/05 04:25:11;;;;;;;;;;;-1.00;99.90;;;;;;5027083;28;19912;-80
2023/04/05 04:27:43;;;;;;;;;;;-1.00;99.90;;;;;;5018336;28;19940;-80
2023/04/05 04:30:15;;;;;;;;;;;-1.00;99.90;;;;;;5007608;28;19948;-80
2023/04/05 04:32:50;;;;;;;;;;;-1.00;99.90;;;;;;5030895;28;19904;-79
2023/04/05 04:35:33;;;;;;;;;;;-1.00;99.90;;;;;;5022345;28;19908;-78
2023/04/05 04:38:20;;;;;;;;;;;-1.00;99.90;;;;;;5010820;28;19915;-78
2023/04/05 04:40:52;;;;;;;;;;;-0.90;99.90;;;;;;5014735;28;19905;-80
2023/04/05 04:43:26;;;;;;;;;;;-0.90;99.90;;;;;;5015393;28;19912;-80
2023/04/05 04:45:54;;;;;;;;;;;-0.80;99.90;;;;;;5035415;28;19909;-91
2023/04/05 04:51:31;;;;;;;;;;;-0.60;99.90;;;;;;5037579;28;20003;-88
2023/04/05 04:54:06;;;;;;;;;;;-0.50;99.90;;;;;;5021327;28;19917;-78
2023/04/05 04:56:35;;;;;;;;;;;-0.30;99.90;;;;;;5018654;28;19920;-78
2023/04/05 04:59:07;;;;;;;;;;;-0.20;99.90;;;;;;5021305;28;19909;-78
2023/04/05 05:01:36;;;;;;;;;;;0.00;99.80;;;;;;5023663;28;19963;-78
2023/04/05 05:04:08;;;;;;;;;;;0.20;99.30;;;;;;5010102;28;19905;-79
2023/04/05 05:06:37;;;;;;;;;;;0.60;98.50;;;;;;5002625;28;19909;-79
2023/04/05 05:09:05;;;;;;;;;;;1.50;97.00;;;;;;5022719;28;19905;-79
2023/04/05 05:11:34;;;;;;;;;;;2.80;93.90;;;;;;5002356;28;19912;-79
2023/04/05 05:14:05;;;;;;;;;;;4.30;89.40;;;;;;5024756;28;20118;-79
2023/04/05 05:16:33;;;;;;;;;;;5.70;79.30;;;;;;5016475;28;19905;-79
2023/04/05 05:19:06;;;;;;;;;;;7.30;71.30;;;;;;5016662;28;19909;-79
2023/04/05 05:21:45;;;;;;;;;;;8.60;65.80;;;;;;5003623;28;19905;-79
2023/04/05 05:24:14;;;;;;;;;;;10.00;59.90;;;;;;5021082;28;19905;-79
2023/04/05 05:26:43;;;;;;;;;;;10.90;56.50;;;;;;5020963;28;20385;-79
2023/04/05 05:29:09;;;;;;;;;;;11.80;54.30;;;;;;5033363;28;19912;-80
2023/04/05 05:31:35;;;;;;;;;;;12.40;51.50;;;;;;5006936;28;20286;-80
2023/04/05 05:34:01;;;;;;;;;;;13.10;49.70;;;;;;5018748;28;19909;-79
2023/04/05 05:36:30;;;;;;;;;;;13.50;47.90;;;;;;5013585;28;20420;-81
2023/04/05 05:39:12;;;;;;;;;;;14.00;47.00;;;;;;5023176;28;19908;-80
2023/04/05 05:41:46;;;;;;;;;;;14.60;45.80;;;;;;5005900;28;19909;-82
2023/04/05 05:44:16;;;;;;;;;;;15.50;43.50;;;;;;5030470;28;19916;-80
2023/04/05 05:46:41;;;;;;;;;;;16.20;43.70;;;;;;5027368;28;19916;-78
2023/04/05 05:49:22;;;;;;;;;;;17.00;41.80;;;;;;5010307;28;19920;-78
2023/04/05 05:52:00;;;;;;;;;;;17.20;40.20;;;;;;5021494;28;19931;-77
2023/04/05 05:54:29;;;;;;;;;;;18.00;39.80;;;;;;5006453;28;19967;-79
2023/04/05 05:57:01;;;;;;;;;;;18.90;38.50;;;;;;5028148;28;19937;-77
2023/04/05 05:59:28;;;;;;;;;;;18.40;37.60;;;;;;5003879;28;20697;-79
2023/04/05 06:01:55;;;;;;;;;;;19.00;37.90;;;;;;5007218;28;20636;-78
2023/04/05 06:04:23;;;;;;;;;;;19.60;37.10;;;;;;5009872;28;20309;-78
2023/04/05 06:06:50;;;;;;;;;;;19.90;36.80;;;;;;5025177;28;19935;-77
2023/04/05 06:09:16;;;;;;;;;;;19.80;36.50;;;;;;5034438;28;19909;-78
2023/04/05 06:11:41;;;;;;;;;;;19.30;36.80;;;;;;5008416;28;19959;-77
2023/04/05 06:14:14;;;;;;;;;;;19.50;36.60;;;;;;5011984;28;20028;-78
2023/04/05 06:16:40;;;;;;;;;;;20.80;36.00;;;;;;5008222;28;19960;-77
2023/04/05 06:19:07;;;;;;;;;;;21.60;35.40;;;;;;5011461;28;19920;-78
2023/04/05 06:21:39;;;;;;;;;;;20.90;34.80;;;;;;5026996;28;19912;-78
2023/04/05 06:24:05;;;;;;;;;;;20.30;35.30;;;;;;5014249;28;19959;-78
2023/04/05 06:26:34;;;;;;;;;;;18.70;35.90;;;;;;5018990;28;19909;-80
2023/04/05 06:29:03;;;;;;;;;;;17.10;37.50;;;;;;5004785;28;19919;-81
2023/04/05 06:31:41;;;;;;;;;;;16.70;38.50;;;;;;5015104;28;20008;-81
2023/04/05 06:34:07;;;;;;;;;;;16.70;38.40;;;;;;5025929;28;20393;-80
2023/04/05 06:36:34;;;;;;;;;;;15.90;39.00;;;;;;5009877;28;19904;-80
2023/04/05 06:39:00;;;;;;;;;;;14.60;40.30;;;;;;5007119;28;20787;-79
2023/04/05 06:41:32;;;;;;;;;;;12.50;41.40;;;;;;5021135;28;19905;-79
2023/04/05 06:43:59;;;;;;;;;;;12.00;43.30;;;;;;5005645;28;19971;-79
2023/04/05 06:46:27;;;;;;;;;;;10.40;44.90;;;;;;5024595;28;19909;-79
2023/04/05 06:48:54;;;;;;;;;;;9.80;46.40;;;;;;5003563;28;20000;-79
2023/04/05 06:51:25;;;;;;;;;;;8.90;47.40;;;;;;5018277;28;19909;-79
2023/04/05 06:53:51;;;;;;;;;;;8.20;48.90;;;;;;5004635;28;19917;-79
2023/04/05 06:56:16;;;;;;;;;;;7.60;50.10;;;;;;5024674;28;19916;-79
2023/04/05 06:58:43;;;;;;;;;;;7.10;51.50;;;;;;5015303;28;20362;-79
2023/04/05 07:01:10;;;;;;;;;;;6.40;52.60;;;;;;5028601;28;20016;-79
2023/04/05 07:03:38;;;;;;;;;;;6.10;53.80;;;;;;5019477;28;19912;-80
2023/04/05 07:06:05;;;;;;;;;;;5.80;54.50;;;;;;5014575;28;19905;-79
2023/04/05 07:08:35;;;;;;;;;;;5.60;55.00;;;;;;5019770;28;20636;-78
2023/04/05 07:11:11;;;;;;;;;;;5.60;55.40;;;;;;5023685;28;19912;-78
2023/04/05 07:13:38;;;;;;;;;;;5.30;56.00;;;;;;5029662;28;19982;-78
2023/04/05 07:16:05;;;;;;;;;;;5.30;56.40;;;;;;5022673;28;19905;-79
2023/04/05 07:18:34;;;;;;;;;;;5.40;56.80;;;;;;5018365;28;19904;-79
2023/04/05 07:21:02;;;;;;;;;;;5.30;57.00;;;;;;5006165;28;19940;-79
2023/04/05 07:23:30;;;;;;;;;;;5.40;56.90;;;;;;5001272;28;19950;-79
2023/04/05 07:26:03;;;;;;;;;;;5.60;56.90;;;;;;5005804;28;19909;-79
2023/04/05 07:28:36;;;;;;;;;;;5.70;56.90;;;;;;5001887;28;19951;-79
2023/04/05 07:31:03;;;;;;;;;;;5.80;56.60;;;;;;5011407;28;19920;-78
2023/04/05 07:33:32;;;;;;;;;;;5.80;56.50;;;;;;5008142;28;19905;-79
2023/04/05 07:36:00;;;;;;;;;;;5.90;56.50;;;;;;5012743;28;20653;-79
2023/04/05 07:38:26;;;;;;;;;;;6.10;56.40;;;;;;5007837;28;20448;-79
2023/04/05 07:40:56;;;;;;;;;;;6.50;56.10;;;;;;5009180;28;19916;-79
2023/04/05 07:43:24;;;;;;;;;;;7.00;55.50;;;;;;5029365;28;19905;-79
2023/04/05 07:46:09;;;;;;;;;;;7.30;54.80;;;;;;5014378;28;19995;-79
2023/04/05 07:48:36;;;;;;;;;;;7.80;54.40;;;;;;5026687;28;19996;-80
2023/04/05 07:51:05;;;;;;;;;;;8.80;53.10;;;;;;5024133;28;19924;-80
2023/04/05 07:53:31;;;;;;;;;;;11.40;49.80;;;;;;5026644;28;19935;-80
2023/04/05 07:56:02;;;;;;;;;;;14.30;46.20;;;;;;5010339;28;19912;-80
2023/04/05 07:58:40;;;;;;;;;;;17.60;41.90;;;;;;5025104;28;19920;-81
2023/04/05 08:01:07;;;;;;;;;;;20.40;39.60;;;;;;5013361;28;19916;-81
2023/04/05 08:03:38;;;;;;;;;;;22.50;36.20;;;;;;5005147;28;19920;-77
2023/04/05 08:06:17;;;;;;;;;;;23.20;34.00;;;;;;5016856;28;19905;-78
2023/04/05 08:08:59;;;;;;;;;;;24.00;34.80;;;;;;5021956;28;19909;-78
2023/04/05 08:11:30;;;;;;;;;;;24.60;33.10;;;;;;5022126;28;20649;-78
2023/04/05 08:14:07;;;;;;;;;;;23.90;33.50;;;;;;5024399;28;19916;-78
2023/04/05 08:16:35;;;;;;;;;;;25.40;32.70;;;;;;5013983;28;20008;-78
2023/04/05 08:19:01;;;;;;;;;;;25.90;31.70;;;;;;5023820;28;20240;-78
2023/04/05 08:21:30;;;;;;;;;;;27.10;31.50;;;;;;5002342;28;20063;-79
2023/04/05 08:23:57;;;;;;;;;;;28.00;31.10;;;;;;5028136;28;19909;-79
2023/04/05 08:26:22;;;;;;;;;;;27.50;30.50;;;;;;5026453;28;19912;-80
2023/04/05 08:28:53;;;;;;;;;;;27.00;30.60;;;;;;5001654;28;19905;-80
2023/04/05 08:31:19;;;;;;;;;;;24.70;30.60;;;;;;5020582;28;20064;-79
2023/04/05 08:33:51;;;;;;;;;;;18.50;33.90;;;;;;5023353;28;19904;-79
2023/04/05 08:36:25;;;;;;;;;;;18.30;37.80;;;;;;5014492;28;19908;-79
2023/04/05 08:38:53;;;;;;;;;;;21.10;36.40;;;;;;5019892;28;19905;-79
2023/04/05 08:41:22;;;;;;;;;;;24.00;33.80;;;;;;5023579;28;19905;-79
2023/04/05 08:43:56;;;;;;;;;;;24.80;31.90;;;;;;5019996;28;19959;-78
2023/04/05 08:46:35;;;;;;;;;;;26.80;32.20;;;;;;5026892;28;19905;-79
2023/04/05 08:49:08;;;;;;;;;;;27.00;31.50;;;;;;5019254;28;19908;-78
2023/04/05 08:51:41;;;;;;;;;;;26.80;31.40;;;;;;5020544;28;19913;-78
2023/04/05 08:54:07;;;;;;;;;;;27.20;30.70;;;;;;5009075;28;20365;-79
2023/04/05 08:56:35;;;;;;;;;;;28.00;30.80;;;;;;5004560;28;20574;-79
2023/04/05 08:59:08;;;;;;;;;;;28.80;30.30;;;;;;5027243;28;20426;-79
2023/04/05 09:01:43;;;;;;;;;;;25.00;31.10;;;;;;5022628;28;19939;-78
2023/04/05 09:04:16;;;;;;;;;;;24.50;32.30;;;;;;5023175;28;20378;-79
2023/04/05 09:06:43;;;;;;;;;;;25.70;31.80;;;;;;5027716;28;20351;-79
2023/04/05 09:09:10;;;;;;;;;;;26.20;30.40;;;;;;5021085;28;20013;-79
2023/04/05 09:11:36;;;;;;;;;;;26.80;31.50;;;;;;5015438;28;19916;-78
2023/04/05 09:14:03;;;;;;;;;;;26.90;30.80;;;;;;5026318;28;19912;-78
2023/04/05 09:16:32;;;;;;;;;;;27.90;30.90;;;;;;5024229;28;20492;-78
2023/04/05 09:18:59;;;;;;;;;;;28.50;30.40;;;;;;5021589;28;19934;-78
2023/04/05 09:21:27;;;;;;;;;;;29.70;30.10;;;;;;5009708;28;19909;-78
2023/04/05 09:23:54;;;;;;;;;;;28.30;29.40;;;;;;5007406;28;19909;-78
2023/04/05 09:26:40;;;;;;;;;;;26.40;31.30;;;;;;5027493;28;19974;-77
2023/04/05 09:29:07;;;;;;;;;;;26.90;30.80;;;;;;5026609;28;20591;-81
2023/04/05 09:31:36;;;;;;;;;;;23.20;30.50;;;;;;5015625;28;19958;-80
2023/04/05 09:34:03;;;;;;;;;;;17.10;36.30;;;;;;5017060;28;19909;-79
2023/04/05 09:36:34;;;;;;;;;;;13.60;40.30;;;;;;5019335;28;20828;-79
2023/04/05 09:39:08;;;;;;;;;;;14.70;39.80;;;;;;5008168;28;19912;-79
2023/04/05 09:41:35;;;;;;;;;;;16.20;40.00;;;;;;5019431;28;19920;-81
2023/04/05 09:44:11;;;;;;;;;;;20.20;36.30;;;;;;5020347;28;19909;-79
2023/04/05 09:46:42;;;;;;;;;;;20.60;34.20;;;;;;5018566;28;20016;-79
2023/04/05 09:49:09;;;;;;;;;;;18.90;35.00;;;;;;5010664;28;20504;-80
2023/04/05 09:51:41;;;;;;;;;;;18.70;35.40;;;;;;4995866;28;19913;-79
2023/04/05 09:54:07;;;;;;;;;;;19.80;35.00;;;;;;5028597;28;20557;-79
2023/04/05 09:56:34;;;;;;;;;;;20.40;34.10;;;;;;5013507;28;19912;-79
2023/04/05 09:59:03;;;;;;;;;;;18.20;35.50;;;;;;5005990;28;19976;-79
2023/04/05 10:01:33;;;;;;;;;;;17.30;36.70;;;;;;5006665;28;20827;-79
2023/04/05 10:03:59;;;;;;;;;;;16.50;37.80;;;;;;5015842;28;19911;-79
2023/04/05 10:06:41;;;;;;;;;;;16.40;38.00;;;;;;5015222;28;19987;-79
2023/04/05 10:09:10;;;;;;;;;;;19.50;37.00;;;;;;5021581;28;19913;-79
2023/04/05 10:11:37;;;;;;;;;;;21.90;34.10;;;;;;5014008;28;19928;-80
2023/04/05 10:14:06;;;;;;;;;;;22.20;32.60;;;;;;5028659;28;19920;-80
2023/04/05 10:16:56;;;;;;;;;;;20.70;32.40;;;;;;5022681;28;19908;-79
2023/04/05 10:19:41;;;;;;;;;;;18.70;33.70;;;;;;4989212;28;19909;-79
2023/04/05 10:22:14;;;;;;;;;;;17.00;35.80;;;;;;5023682;28;19913;-78
2023/04/05 10:25:01;;;;;;;;;;;17.40;36.30;;;;;;5006430;28;20035;-80
2023/04/05 10:27:30;;;;;;;;;;;16.60;36.60;;;;;;4951229;28;19931;-79
2023/04/05 10:29:56;;;;;;;;;;;18.80;37.00;;;;;;5010137;28;19944;-79
2023/04/05 10:32:42;;;;;;;;;;;18.60;34.30;;;;;;5001738;28;19910;-79
2023/04/05 10:35:15;;;;;;;;;;;19.70;35.90;;;;;;5002009;28;19909;-79
2023/04/05 10:37:48;;;;;;;;;;;19.00;35.70;;;;;;5007125;28;19909;-78
2023/04/05 10:40:16;;;;;;;;;;;17.80;36.50;;;;;;5020864;28;19909;-79
2023/04/05 10:42:45;;;;;;;;;;;16.70;37.90;;;;;;5021976;28;19909;-79
2023/04/05 10:45:11;;;;;;;;;;;15.70;39.40;;;;;;5016470;28;19917;-80
2023/04/05 10:47:42;;;;;;;;;;;14.60;39.90;;;;;;5025852;28;19905;-79
2023/04/05 10:50:08;;;;;;;;;;;13.60;41.00;;;;;;5020761;28;19964;-79
2023/04/05 10:52:35;;;;;;;;;;;13.10;42.10;;;;;;5019160;28;19963;-78
2023/04/05 10:55:02;;;;;;;;;;;12.50;42.30;;;;;;5003356;28;20410;-79
2023/04/05 10:57:29;;;;;;;;;;;12.10;42.90;;;;;;5006926;28;19909;-79
2023/04/05 10:59:55;;;;;;;;;;;12.50;43.40;;;;;;5020183;28;20503;-79
2023/04/05 11:02:22;;;;;;;;;;;13.00;42.60;;;;;;5014125;28;19901;-78
2023/04/05 11:04:58;;;;;;;;;;;13.80;42.40;;;;;;5006670;28;20084;-79
2023/04/05 11:10:16;;;;;;;;;;;14.60;40.70;;;;;;5017446;28;19956;-78
2023/04/05 11:12:48;;;;;;;;;;;14.00;40.00;;;;;;5030738;28;19905;-79
2023/04/05 11:15:29;;;;;;;;;;;13.70;40.50;;;;;;4999714;28;19913;-79
2023/04/05 11:18:32;;;;;;;;;;;13.40;41.20;;;;;;5008676;28;19918;-79
2023/04/05 11:21:08;;;;;;;;;;;13.10;42.00;;;;;;4909499;29;19911;-79
2023/04/05 11:23:54;;;;;;;;;;;13.40;41.70;;;;;;5002895;28;19908;-79
2023/04/05 11:26:21;;;;;;;;;;;12.10;41.90;;;;;;5021989;28;20390;-79
2023/04/05 11:28:56;;;;;;;;;;;11.90;42.80;;;;;;5007992;28;19959;-79
2023/04/05 11:31:25;;;;;;;;;;;12.60;42.70;;;;;;5026246;28;19908;-79
2023/04/05 11:33:58;;;;;;;;;;;13.00;42.10;;;;;;5011682;28;20266;-79
2023/04/05 11:36:44;;;;;;;;;;;13.60;41.50;;;;;;5009430;28;19904;-78
2023/04/05 11:42:17;;;;;;;;;;;12.70;41.10;;;;;;5019368;28;19951;-79
2023/04/05 11:44:50;;;;;;;;;;;12.80;41.80;;;;;;5018593;28;19905;-79
2023/04/05 11:47:16;;;;;;;;;;;13.00;41.50;;;;;;5000925;28;19913;-78
2023/04/05 11:49:42;;;;;;;;;;;12.30;41.40;;;;;;5019014;28;20368;-78
2023/04/05 11:52:11;;;;;;;;;;;12.20;42.20;;;;;;5025849;28;19991;-79
2023/04/05 11:54:38;;;;;;;;;;;12.10;42.30;;;;;;5018948;28;20006;-79
2023/04/05 11:57:05;;;;;;;;;;;12.00;42.30;;;;;;4999778;28;20412;-79
2023/04/05 11:59:32;;;;;;;;;;;11.80;42.40;;;;;;5017730;28;20213;-79
2023/04/05 12:02:07;;;;;;;;;;;12.00;42.90;;;;;;5019040;28;19928;-79
2023/04/05 12:04:35;;;;;;;;;;;12.30;42.40;;;;;;5003879;28;19959;-79
2023/04/05 12:07:28;;;;;;;;;;;12.60;42.70;;;;;;5004410;28;19996;-79
2023/04/05 12:10:09;;;;;;;;;;;12.80;41.40;;;;;;5008952;28;19920;-79
2023/04/05 12:12:39;;;;;;;;;;;12.80;41.50;;;;;;5021461;28;19987;-79
2023/04/05 12:15:09;;;;;;;;;;;11.10;42.10;;;;;;5018964;28;21262;-79
2023/04/05 12:17:39;;;;;;;;;;;10.80;43.90;;;;;;5027836;28;19963;-80
2023/04/05 12:20:05;;;;;;;;;;;11.20;43.70;;;;;;5010368;28;19908;-79
2023/04/05 12:22:47;;;;;;;;;;;11.40;43.30;;;;;;5009188;28;19947;-78
2023/04/05 12:25:15;;;;;;;;;;;10.60;43.70;;;;;;5005289;28;20259;-78
2023/04/05 12:27:41;;;;;;;;;;;10.60;44.40;;;;;;5022513;28;19959;-78
2023/04/05 12:30:13;;;;;;;;;;;11.30;44.30;;;;;;5025321;28;19916;-79
2023/04/05 12:32:56;;;;;;;;;;;11.70;43.50;;;;;;5027114;28;20031;-79
2023/04/05 12:35:33;;;;;;;;;;;12.20;42.20;;;;;;5018493;28;19905;-79
2023/04/05 12:38:14;;;;;;;;;;;12.00;41.80;;;;;;5010292;28;20347;-79
2023/04/05 12:40:40;;;;;;;;;;;11.80;42.10;;;;;;5028463;28;19999;-78
2023/04/05 12:43:08;;;;;;;;;;;11.20;43.10;;;;;;5007568;28;19991;-79
2023/04/05 12:45:42;;;;;;;;;;;11.10;42.60;;;;;;5011906;28;19905;-79
2023/04/05 12:48:21;;;;;;;;;;;10.60;43.90;;;;;;5004991;28;20601;-79
2023/04/05 12:50:50;;;;;;;;;;;11.00;43.60;;;;;;5022487;28;19920;-79
2023/04/05 12:53:19;;;;;;;;;;;11.60;43.60;;;;;;5026986;28;19909;-79
2023/04/05 12:55:50;;;;;;;;;;;11.50;42.60;;;;;;5012536;28;19917;-79
2023/04/05 12:58:43;;;;;;;;;;;11.20;43.30;;;;;;5020355;28;20035;-79
2023/04/05 13:01:19;;;;;;;;;;;11.30;43.50;;;;;;5000584;28;19914;-80
2023/04/05 13:03:46;;;;;;;;;;;11.50;43.60;;;;;;5010167;28;19911;-79
2023/04/05 13:06:28;;;;;;;;;;;11.30;43.50;;;;;;5000797;28;19915;-79
2023/04/05 13:08:54;;;;;;;;;;;11.30;43.50;;;;;;5005551;28;19909;-79
2023/04/05 13:11:27;;;;;;;;;;;11.40;43.40;;;;;;5010153;28;19935;-78
2023/04/05 13:13:58;;;;;;;;;;;11.50;43.20;;;;;;5019252;28;20543;-79
2023/04/05 13:16:24;;;;;;;;;;;11.10;43.90;;;;;;5027186;28;19912;-79
2023/04/05 13:18:50;;;;;;;;;;;11.20;43.90;;;;;;5031374;28;20285;-79
2023/04/05 13:21:26;;;;;;;;;;;10.90;43.80;;;;;;5028386;28;19975;-78
2023/04/05 13:24:04;;;;;;;;;;;11.20;44.40;;;;;;5020233;28;19950;-79
2023/04/05 13:26:32;;;;;;;;;;;11.40;43.80;;;;;;5021861;28;19909;-79
2023/04/05 13:29:09;;;;;;;;;;;11.60;43.20;;;;;;5018355;28;19905;-80
2023/04/05 13:31:36;;;;;;;;;;;11.70;43.40;;;;;;5020020;28;19924;-79
2023/04/05 13:34:02;;;;;;;;;;;11.80;43.10;;;;;;5017447;28;19963;-79
2023/04/05 13:36:29;;;;;;;;;;;11.80;43.10;;;;;;5019570;28;20358;-78
2023/04/05 13:38:55;;;;;;;;;;;11.90;43.20;;;;;;5006589;28;19905;-79
2023/04/05 13:41:26;;;;;;;;;;;11.70;42.90;;;;;;5011679;28;20261;-79
2023/04/05 13:44:09;;;;;;;;;;;11.30;43.10;;;;;;5019318;28;19912;-79
2023/04/05 13:46:35;;;;;;;;;;;11.20;43.60;;;;;;5015920;28;19913;-79
2023/04/05 13:49:04;;;;;;;;;;;11.40;43.30;;;;;;5017276;28;20319;-79
2023/04/05 13:51:56;;;;;;;;;;;11.40;43.50;;;;;;5006363;28;19924;-80
2023/04/05 13:54:28;;;;;;;;;;;11.20;43.30;;;;;;5026989;28;19909;-79
2023/04/05 13:56:57;;;;;;;;;;;10.60;43.50;;;;;;5004060;28;19948;-79
2023/04/05 13:59:24;;;;;;;;;;;10.50;44.40;;;;;;5009352;28;20309;-79
2023/04/05 14:01:51;;;;;;;;;;;10.60;44.60;;;;;;5009699;28;19915;-79
2023/04/05 14:04:19;;;;;;;;;;;10.50;44.40;;;;;;5019600;28;19905;-78
2023/04/05 14:06:53;;;;;;;;;;;10.60;44.80;;;;;;5018172;28;20366;-79
2023/04/05 14:09:21;;;;;;;;;;;10.60;44.80;;;;;;5027195;28;19928;-80
2023/04/05 14:11:55;;;;;;;;;;;11.00;44.50;;;;;;5032947;28;19926;-78
2023/04/05 14:14:24;;;;;;;;;;;11.00;44.30;;;;;;5013789;28;19999;-78
2023/04/05 14:16:55;;;;;;;;;;;10.80;44.30;;;;;;5006184;28;20428;-79
2023/04/05 14:19:23;;;;;;;;;;;10.80;44.70;;;;;;5021660;28;20104;-79
2023/04/05 14:21:58;;;;;;;;;;;10.80;44.90;;;;;;5024504;28;19933;-79
2023/04/05 14:24:34;;;;;;;;;;;10.80;45.00;;;;;;5021930;28;19912;-79
2023/04/05 14:27:01;;;;;;;;;;;10.70;45.10;;;;;;5030949;28;19920;-79
2023/04/05 14:29:27;;;;;;;;;;;10.70;44.80;;;;;;5032294;28;19919;-79
2023/04/05 14:31:55;;;;;;;;;;;10.80;45.00;;;;;;5021674;28;20342;-79
2023/04/05 14:34:20;;;;;;;;;;;10.80;44.90;;;;;;5016308;28;19948;-79
2023/04/05 14:36:47;;;;;;;;;;;10.80;44.80;;;;;;5024513;28;20001;-79
2023/04/05 14:39:17;;;;;;;;;;;10.70;44.70;;;;;;5006855;28;19912;-79
2023/04/05 14:41:48;;;;;;;;;;;10.60;44.90;;;;;;5010650;28;20166;-79
2023/04/05 14:44:14;;;;;;;;;;;10.40;45.20;;;;;;5013530;28;19904;-79
2023/04/05 14:46:41;;;;;;;;;;;10.50;45.50;;;;;;5014630;28;19909;-80